Inhaltsbereich

METAR / TAF

Die METAR- und TAF-Liste ist aus technischen Gründen (Verfügbarkeit, Update-Zyklen) nicht für ein Meteo-Briefing gedacht. Benutzen Sie stattdessen skybriefing der Skyguide  oder das TAMSI (MeteoSchweiz-eigene Meteo Selfbriefing-Plattform für Firmen aus der Aviatik; Anfragen über das

Kontaktformular

METAR Schweiz

METAR     LFSB 241530Z 11007KT CAVOK 06/02 Q1022 NOSIG=
METAR     LSGC 241520Z 00000KT CAVOK 07/01 Q1020=
METAR     LSGC 241550Z VRB01KT CAVOK 06/M00 Q1020=
METAR     LSGG 241520Z VRB01KT 7000 FEW014 05/02 Q1023 NOSIG=
METAR     LSGG 241550Z 34001KT 6000 NSC 04/01 Q1023 NOSIG=
METAR     LSGS 241520Z 25004KT CAVOK 07/02 Q1022=
METAR     LSGS 241550Z 26005KT CAVOK 06/02 Q1022=
METAR     LSMA 241520Z 04003KT CAVOK 04/01 Q1023 RMK BLU=
METAR     LSMA 241550Z AUTO 00000KT 7000NDV NCD 03/01 Q1023 RMK=
METAR     LSMD 241520Z VRB02KT 9999 OVC011 03/01 Q1023 RMK GRN=
METAR     LSMD 241550Z VRB01KT 9999 OVC011 03/01 Q1023 RMK GRN=
METAR     LSME 241520Z 00000KT 3500 BR OVC007 03/01 Q1024 RMK YLO=
METAR     LSME 241550Z NIL=
METAR     LSMM 241520Z 12003KT 090V160 CAVOK M02/M02 Q1022 RMK BLU=
METAR     LSMM 241550Z 00000KT CAVOK M01/M01 Q1022 RMK BLU=
METAR     LSMP 241520Z VRB02KT 4900 BR OVC009 03/02 Q1023 RMK GRN=
METAR     LSMP 241550Z VRB02KT 4800 BR OVC009 03/02 Q1023 RMK GRN=
METAR     LSZA 241520Z 29002KT CAVOK 08/01 Q1025=
METAR     LSZA 241550Z AUTO VRB01KT CAVOK 07/01 Q1025=
METAR     LSZB 241520Z 32007KT 3000 BR OVC004 02/02 Q1023 NOSIG=
METAR     LSZB 241550Z 33008KT 3000 BR OVC004 02/02 Q1023 NOSIG=
METAR     LSZC 241520Z AUTO VRB02KT 9000 BKN010 03/02 Q1023=
METAR     LSZC 241550Z AUTO VRB01KT 7000 OVC010 03/01 Q1023=
METAR     LSZG 241520Z 21003KT 4100 BR OVC006 02/02 Q1023=
METAR     LSZG 241550Z 29001KT 3900 BR OVC006 02/02 Q1023=
METAR     LSZH 241520Z 11003KT 060V150 9999 OVC013 04/01 Q1023 NOSIG=
METAR     LSZH 241550Z VRB02KT 8000 OVC013 04/01 Q1023 NOSIG=
METAR     LSZL 241520Z 00000KT CAVOK 08/00 Q1025 RMK BLU=
METAR     LSZL 241550Z NIL=
METAR     LSZR 241520Z VRB01KT 9000 SCT010 03/02 Q1023 NOSIG RMK K=
METAR     LSZR 241550Z 12002KT 7000 FEW010 02/01 Q1023 NOSIG RMK L=
METAR     LSZS 241520Z 19007KT CAVOK 01/M07 Q1023 RMK R TL170=
METAR     LSZS 241550Z 19007KT CAVOK 01/M08 Q1023 RMK S TL170=
Aktualisiert am Dienstag, 24. November 2020, 17:02 Uhr

TAF Schweiz

TAF     LFSB 241100Z 2412/2512 11008KT CAVOK BECMG 2420/2422 6000
             TEMPO 2422/2508 3000 MIFG PROB30 TEMPO 2502/2507 0300
             FZFG VV///=
TAF     LSGC 241425Z 2415/2424 VRB03KT CAVOK=
TAF     LSGG 241425Z 2415/2521 VRB03KT 8000 FEW025 TX06/2415Z
             TN00/2506Z TX06/2515Z BECMG 2418/2420 4000 BR BKN012
             BECMG 2423/2502 2500 BKN008 PROB30 TEMPO 2504/2508 0800
             FZFG VV003 BECMG 2509/2512 5000 BKN011=
TAF     LSGS 241425Z 2415/2424 VRB03KT CAVOK=
TAF     LSMA 240925Z 2410/2516 VRB03KT 6000 SCT009 PROB30 2410/2412
             BKN009 BECMG 2418/2420 2500 BR PROB40 TEMPO 2424/2510
             0800 FZFG BECMG 2509/2512 BKN008 BECMG 2512/2515 6000
             SCT010=
TAF     LSMD 240925Z 2410/2516 15005KT 5000 BR SCT005 BKN008 PROB30
             2410/2412 4000 PROB40 2412/2418 SCT012 BECMG 2417/2419
             2500 BR BKN004 BECMG 2418/2421 0800 BCFG BECMG 2421/2424
             0300 FZFG VV001 BECMG 2509/2512 3000 BR BKN005 BECMG
             2512/2515 6000 SCT010=
TAF AAA LSMD 241412Z 2414/2516 15005KT 9999 BKN013 BECMG 2417/2419
             2500 BR BKN004 BECMG 2418/2421 0800 BCFG BECMG 2421/2424
             0300 FZFG VV001 BECMG 2509/2512 3000 BR BKN005 BECMG
             2512/2515 6000 SCT010=
TAF     LSME 240925Z 2410/2516 VRB03KT 5000 BR BKN007 PROB40 TEMPO
             2410/2414 4000 PROB40 2413/2418 SCT012 BECMG 2416/2419
             3000 BECMG 2419/2421 0800 PRFG BKN002 BECMG 2421/2424
             0500 FZFG VV002 BECMG 2510/2513 3000 BR BKN005 BECMG
             2512/2515 6000 SCT010=
TAF     LSMM 240925Z 2410/2516 VRB02KT CAVOK PROB30 2503/2508 0400
             FZFG VV002=
TAF     LSMP 240925Z 2410/2516 VRB03KT 4500 BR OVC007 BECMG 2411/2413
             6000 BECMG 2417/2420 2500 PROB40 TEMPO 2503/2508 0800
             FZFG VV003=
TAF     LSZA 241425Z 2415/2424 VRB02KT CAVOK PROB40 2416/2424 9000
             NSC=
TAF     LSZB 241425Z 2415/2424 33005KT 2500 BR BKN004 PROB30
             2415/2417 4000 BR BECMG 2418/2421 0500 FZFG VV002=
TAF     LSZC 241425Z 2415/2424 VRB03KT CAVOK BECMG 2416/2419 4000 BR
             FEW005 BECMG 2419/2421 2500 BKN004=
TAF     LSZG 241425Z 2415/2424 VRB02KT 4700 BR OVC006 TEMPO 2415/2420
             5000 BECMG 2420/2421 2500 BKN004=
TAF     LSZH 241425Z 2415/2521 09004KT 9000 BKN013 TX04/2415Z
             TNM00/2505Z TX04/2514Z BECMG 2417/2419 4500 BR BECMG
             2419/2421 2500 BR OVC009 PROB40 2422/2508 0300 FZFG
             VV001 BECMG 2508/2511 6000 BKN011 PROB40 2512/2516 9000
             SCT013 BECMG 2517/2519 4500 BR BECMG 2519/2521 2500 BR
             OVC009=
TAF     LSZL 241125Z 2412/2421 VRB02KT CAVOK=
TAF     LSZR 241425Z 2415/2424 VRB02KT 9000 BKN009 PROB40 2415/2418
             SCT012 BECMG 2418/2421 4500 BR=
TAF     LSZS 241425Z 2415/2424 20006KT CAVOK TX06/2415Z=
Aktualisiert am Dienstag, 24. November 2020, 17:02 Uhr